Tiempo atmosférico en la estación meteorológica de Lugo Aeropuerto, Lugo (445 m.)



Fecha
DESCASC
Temp. máxima en grados centígrados (hora)
DESCASC
Temp. mínima en grados centígrados (hora)
DESCASC
Temp. media en grados centígrados
DESCASC
Racha de viento máxima en m/sg (hora)
DESCASC
Velocidad máxima media en intervalos de 10 minutos(hora)
DESCASC
Precipitaciones diarias en mm
DESCASC
Precipitaciones de 00:00 a 06:00 en mm
DESCASC
Precipitaciones de 06:00 a 12:00 en mm
DESCASC
Precipitaciones de 12:00 a 18:00 en mm
DESCASC
Precipitaciones de 18:00 a 24:00 en mm
DESCASC
20-09-2018 28 (16:30) 10.8 (05:30) 19.4 9.44 (16:30) 4.44 (16:30) 0 0 0 0 0
19-09-2018 26.8 (18:10) 10.1 (08:30) 18.4 6.11 (14:40) 2.78 (11:30) 0 0 0 0 0
18-09-2018 26 (16:40) 11.7 (03:20) 18.8 6.11 (16:10) 3.33 (12:30) 0 0 0 0 0
17-09-2018 30.8 (16:20) 10.3 (08:20) 20.5 8.61 (18:20) 5.28 (13:50) 0.2 0 0.2 0 0
16-09-2018 23.8 (17:10) 14.9 (00:00) 19.3 4.72 (12:20) 2.78 (12:20) 0.2 0 0.2 0 0
15-09-2018 27.3 (17:50) 15.1 (00:00) 21.2 5.28 (06:40) 2.5 (08:10) 0 0 0 0 0
14-09-2018 24.2 (15:10) 15.4 (00:00) 19.8 8.61 (18:00) 3.89 (16:50) 0 0 0 0 0
13-09-2018 25 (14:10) 14 (00:00) 19.5 8.06 (18:40) 3.89 (18:40) 0 0 0 0 0
12-09-2018 27.4 (16:20) 12.9 (00:00) 20.1 7.22 (18:30) 3.61 (18:30) 0 0 0 0 0
11-09-2018 31.8 (17:40) 12.3 (00:00) 22 6.39 (19:30) 3.33 (18:50) 0 0 0 0 0
10-09-2018 28.6 (17:10) 15.5 (00:00) 22.1 6.67 (19:00) 3.33 (18:40) 0 0 0 0 0
09-09-2018 26.6 (14:40) 10.6 (00:00) 18.6 7.5 (16:50) 3.61 (16:20) 0 0 0 0 0
08-09-2018 29 (17:20) 11.2 (00:00) 20.1 7.78 (20:20) 4.44 (20:00) 0 0 0 0 0
07-09-2018 22.9 (16:00) 11.7 (00:00) 17.3 7.78 (17:10) 3.89 (16:10) 0 0 0 0 0
06-09-2018 18.4 (17:00) 13.9 (00:00) 16.1 10 (11:40) 5.28 (13:10) 0.6 0.4 0 0.2 0
05-09-2018 19.4 (13:10) 13.7 (00:00) 16.5 10 (02:20) 5 (02:20) 4.4 4.4 0 0 0
04-09-2018 22.7 (16:30) 14.6 (00:00) 18.7 10.28 (15:20) 5.56 (15:20) 0.2 0 0.2 0 0
03-09-2018 22.6 (15:00) 15.6 (00:00) 19.1 10.83 (16:30) 5 (13:20) 0 0 0 0 0
02-09-2018 32.3 (15:50) 14.2 (00:00) 23.2 6.67 (18:10) 3.89 (18:00) 0 0 0 0 0
01-09-2018 28.5 (15:40) 14.3 (00:00) 21.4 7.78 (18:30) 3.33 (16:40) 0 0 0 0 0
31-08-2018 26.6 (15:30) 13.3 (00:00) 20 9.72 (17:50) 4.44 (17:50) 0 0 0 0 0
30-08-2018 23.7 (17:20) 11.4 (00:00) 17.6 6.67 (19:00) 3.33 (22:00) 0 0 0 0 0
29-08-2018 25.3 (16:40) 14.4 (00:00) 19.8 6.67 (20:20) 3.33 (23:40) 0 0 0 0 0
28-08-2018 29 (17:20) 16.3 (00:00) 22.6 8.61 (17:40) 5.28 (19:40) 1 0.6 0.4 0 0
27-08-2018 27.2 (15:30) 10.4 (00:00) 18.8 6.94 (17:50) 3.33 (18:10) 0 0 0 0 0
26-08-2018 28.5 (17:40) 8.5 (00:00) 18.5 5.56 (19:40) 2.78 (20:30) 0 0 0 0 0
25-08-2018 22 (16:50) 8.8 (00:00) 15.4 7.78 (15:40) 4.17 (17:00) 0 0 0 0 0
24-08-2018 20.5 (16:50) 11.7 (00:00) 16.1 8.06 (16:00) 4.17 (17:00) 0 0 0 0 0
23-08-2018 26 (16:30) 16.3 (00:00) 21.1 8.61 (18:50) 4.17 (17:50) 0 0 0 0 0

Gráficas

Temp. máximas Temp. mínimas Temp. medias Precipitaciones Rachas de viento máximas Velocidades máximas media en intervalos de 10 minutos

Datos horarios

Fecha y hora oficial Temperatura (ºC) Velocidad del viento (km/h) Dirección del viento Racha (km/h) Dirección de racha Precipitación (mm) Presión (hPa) Tendencia (hPa) Humedad (%)
2018-09-21 23:00:00 15 0 Calma 3 Noroeste 0 971.8 1.3 90
2018-09-21 22:00:00 16.4 2 Noroeste 5 Norte 0 971.6 1.1 89
2018-09-21 21:00:00 17.7 0 Calma 8 Nordeste 0 971.2 0.8 86
2018-09-21 20:00:00 19.5 5 Nordeste 10 Norte 0 970.5 -0.1 82
2018-09-21 19:00:00 21.2 2 Norte 10 Norte 0 970.5 -0.1 73
2018-09-21 18:00:00 20.8 3 Nordeste 7 Este 0 970.4 -0.2 74
2018-09-21 17:00:00 20.5 3 Nordeste 10 Oeste 0 970.6 0.1 76
2018-09-21 16:00:00 20.1 6 Oeste 18 Sudoeste 0 970.6 -0.1 77
2018-09-21 15:00:00 21.4 6 Sudoeste 22 Sudoeste 0 970.6 -0.1 68
2018-09-21 14:00:00 20.1 9 Sudoeste 17 Oeste 0 970.5 0.2 71
2018-09-21 13:00:00 19.7 12 Sudoeste 22 Sudoeste 0 970.7 1 71
2018-09-21 12:00:00 19.5 8 Sudoeste 24 Oeste 0 970.7 1.4 71
2018-09-21 11:00:00 18.7 8 Sudoeste 21 Sudoeste 0 970.3 1.3 73
2018-09-21 10:00:00 17.7 10 Sudoeste 21 Sur 0 969.7 1 76
2018-09-21 09:00:00 16.7 7 Sur 18 Sur 0 969.3 0.6 79
2018-09-21 08:00:00 16.3 5 Sur 18 Sudoeste 0 969 0.9 80
2018-09-21 07:00:00 16.2 8 Sudoeste 17 Sudoeste 0 968.7 0.3 81
2018-09-21 06:00:00 15.8 5 Oeste 17 Sudoeste 0 968.7 0.2 83
2018-09-21 05:00:00 15.7 5 Sur 15 Sur 0 968.1 -0.4 83
2018-09-21 04:00:00 15.9 10 Sudoeste 18 Sudoeste 0 968.4 -0.1 83
2018-09-21 03:00:00 16.1 10 Sudoeste 18 Sudoeste 0 968.5 -0.5 84
2018-09-21 02:00:00 16.7 10 Sudoeste 20 Sudoeste 0 968.5 -0.3 83
2018-09-21 01:00:00 17.3 11 Sudoeste 20 Oeste 0 968.5 0.1 80
2018-09-21 00:00:00 17.4 10 Sudoeste 19 Sur 0 969 1 80
2018-09-20 23:00:00 16.1 3 Sudoeste 19 Oeste 0 968.8 1.2 80
2018-09-20 22:00:00 17.5 7 Sudoeste 20 Oeste 0 968.4 1 72
2018-09-20 21:00:00 18.8 8 Sudoeste 20 Oeste 0 968 1.2 62
2018-09-20 20:00:00 21 7 Sudoeste 22 Noroeste 0 967.6 0.8 56
2018-09-20 19:00:00 23.7 9 Oeste 23 Noroeste 0 967.4 0.1 45
2018-09-20 18:00:00 26.2 14 Oeste 26 Sudoeste 0 966.8 -0.9 31
2018-09-20 17:00:00 27.1 13 Oeste 34 Oeste 0 966.8 -1.4 35
2018-09-20 16:00:00 27.8 11 Oeste 26 Sudoeste 0 967.3 -1.7 35
2018-09-20 15:00:00 26.4 8 Sudoeste 22 Oeste 0 967.7 -1.4 44
2018-09-20 14:00:00 23.9 8 Oeste 16 Oeste 0 968.2 -1.1 55
2018-09-20 13:00:00 21 5 Norte 11 Noroeste 0 969 -0.5 68
2018-09-20 12:00:00 17.3 4 Nordeste 10 Nordeste 0 969.1 -0.4 82
2018-09-20 11:00:00 13.3 3 Nordeste 7 Sur 0 969.3 0.2 96
2018-09-20 10:00:00 11.5 3 Sudeste 6 Sudeste 0 969.5 0.4 96
2018-09-20 09:00:00 11.2 3 Sudeste 5 Sur 0 969.5 0.2 95
2018-09-20 08:00:00 11.4 0 Calma 5 Sur 0 969.1 -0.4 93
2018-09-20 07:00:00 11.9 2 Sudeste 4 Sur 0 969.1 -0.7 97
2018-09-20 06:00:00 11.3 2 Sur 4 Sur 0 969.3 -1.1 95
2018-09-20 05:00:00 11.1 0 Calma 5 Sur 0 969.5 -1.1 92
2018-09-20 04:00:00 11 2 Sur 6 Sudeste 0 969.8 -1.2 91
2018-09-20 03:00:00 11.1 0 Calma 4 Sur 0 970.4 -0.9 89
2018-09-20 02:00:00 11.9 2 Sur 6 Sudeste 0 970.6 -0.7 88
2018-09-20 01:00:00 13 2 Sur 5 Sudeste 0 971 0.2 86
2018-09-20 00:00:00 14 2 Sur 5 Oeste 0 971.3 1.3 85
2018-09-19 23:00:00 15.2 3 Sudoeste 4 Sudoeste 0 971.3 1.8 82
2018-09-19 22:00:00 17.5 2 Este 9 Norte 0 970.8 1.3 77
2018-09-19 21:00:00 20.3 2 Este 9 Nordeste 0 970 0.8 66
2018-09-19 20:00:00 23.8 3 Oeste 12 Oeste 0 969.5 0.1 52
2018-09-19 19:00:00 25.4 4 Oeste 15 Sudoeste 0 969.5 -0.5 42
2018-09-19 18:00:00 26.7 5 Oeste 15 Oeste 0 969.2 -1.2 39
2018-09-19 17:00:00 26.5 8 Oeste 17 Oeste 0 969.4 -1.4 38
2018-09-19 16:00:00 25.6 9 Oeste 20 Sudoeste 0 970 -1.2 42
2018-09-19 15:00:00 24.2 6 Oeste 22 Oeste 0 970.4 -0.8 50
2018-09-19 14:00:00 22.6 8 Sudoeste 18 Oeste 0 970.8 -0.2 56
2018-09-19 13:00:00 20.2 8 Sudoeste 20 Oeste 0 971.2 0.8 65
2018-09-19 12:00:00 19.1 8 Sudoeste 19 Sudoeste 0 971.2 1.1 68
2018-09-19 11:00:00 17 7 Sudoeste 19 Sudoeste 0 971 1.6 80
2018-09-19 10:00:00 12.5 3 Este 6 Sur 0 970.4 1.3 97
2018-09-19 09:00:00 10.4 0 Calma 4 Noroeste 0 970.1 1.2 96
2018-09-19 08:00:00 10.9 0 Calma 4 Sudoeste 0 969.4 0.2 92
2018-09-19 07:00:00 12.3 0 Calma 6 Sudeste 0 969.1 0.3 90
2018-09-19 06:00:00 12.8 4 Sudeste 8 Sudeste 0 968.9 0 96
2018-09-19 05:00:00 11.3 3 Este 3 Este 0 969.2 0.8 96
2018-09-19 04:00:00 12 2 Sudeste 7 Sudeste 0 968.8 0.3 97
2018-09-19 03:00:00 11.4 0 Calma 4 Este 0 968.9 -0.1 89
2018-09-19 02:00:00 12.7 3 Sudoeste 6 Sudoeste 0 968.4 -0.6 89
2018-09-19 01:00:00 14.1 2 Sudoeste 7 Sudeste 0 968.5 0.1 88
2018-09-19 00:00:00 15.7 0 Calma 5 Sudeste 0 969 1.6 83
2018-09-18 23:00:00 15.7 0 Calma 8 Norte 0 969 2.4 82
2018-09-18 22:00:00 17.2 0 Calma 7 Norte 0 968.4 2.1 77
2018-09-18 21:00:00 19.6 3 Sudoeste 6 Noroeste 0 967.4 1.6 68
2018-09-18 20:00:00 22.2 3 Noroeste 17 Oeste 0 966.6 0.6 59
2018-09-18 19:00:00 24.4 6 Oeste 14 Oeste 0 966.3 0 53
2018-09-18 18:00:00 24.9 5 Oeste 14 Oeste 0 965.8 -0.4 52
2018-09-18 17:00:00 25.4 6 Noroeste 22 Oeste 0 966 -0.3 51
2018-09-18 16:00:00 25.4 8 Oeste 18 Sudoeste 0 966.3 -0.3 50
2018-09-18 15:00:00 24.5 8 Oeste 21 Oeste 0 966.2 -0.5 53
2018-09-18 14:00:00 23.9 7 Oeste 20 Oeste 0 966.3 -0.1 56
2018-09-18 13:00:00 22 9 Oeste 21 Oeste 0 966.6 0.9 63
2018-09-18 12:00:00 20.5 7 Oeste 15 Sudoeste 0 966.7 1.3 69
2018-09-18 11:00:00 18.3 9 Sudoeste 12 Sudoeste 0 966.4 1.3 70
2018-09-18 10:00:00 16.1 2 Este 10 Oeste 0 965.7 0.7 80
2018-09-18 09:00:00 14.8 0 Calma 6 Sudeste 0 965.4 0.8 84
2018-09-18 08:00:00 14.6 0 Calma 3 Sudoeste 0 965.1 0.5 84
2018-09-18 07:00:00 14.4 0 Calma 4 Sudeste 0 965 0.2 85
2018-09-18 06:00:00 13.9 0 Calma 5 Sudeste 0 964.6 -0.6 87
2018-09-18 05:00:00 13 3 Sudeste 7 Sudeste 0 964.6 -0.4 88
2018-09-18 04:00:00 12 4 Sudeste 8 Sudeste 0 964.8 0 90
2018-09-18 03:00:00 11.9 3 Sudeste 6 Sudeste 0 965.2 0.5 85
2018-09-18 02:00:00 12.4 2 Sur 8 Sur 0 965 0.2 85
2018-09-18 01:00:00 13.9 0 Calma 6 Sudoeste 0 964.8 0.3 79
2018-09-18 00:00:00 15.1 3 Sudeste 7 Sur 0 964.7 1 74
2018-09-17 23:00:00 16.7 3 Sur 8 Sudoeste 0 964.8 1.6 68
2018-09-17 22:00:00 18.4 5 Sudoeste 9 Sudoeste 0 964.5 1.6 59
2018-09-17 21:00:00 20.7 7 Oeste 14 Sudoeste 0 963.7 1 53
2018-09-17 20:00:00 23.7 8 Oeste 26 Oeste 0 963.2 0.4 43
2018-09-17 19:00:00 26.5 14 Oeste 31 Oeste 0 962.9 -0.1 34
2018-09-17 18:00:00 28.5 16 Oeste 31 Sudoeste 0 962.7 -0.7 29
2018-09-17 17:00:00 30.4 12 Oeste 28 Sudoeste 0 962.8 -1.2 30
2018-09-17 16:00:00 30.3 17 Oeste 30 Sudoeste 0 963 -1.4 28
2018-09-17 15:00:00 30.2 13 Oeste 28 Sudoeste 0 963.4 -1.1 32
2018-09-17 14:00:00 28.4 15 Sudoeste 30 Oeste 0 964 -0.9 32
2018-09-17 13:00:00 26.1 14 Sudoeste 27 Sudoeste 0 964.4 -0.4 46
2018-09-17 12:00:00 23.5 8 Sudoeste 19 Sudoeste 0 964.5 -0.3 53
2018-09-17 11:00:00 18.6 2 Noroeste 5 Noroeste 0 964.9 0.2 82
2018-09-17 10:00:00 13.7 3 Este 5 Este 0 964.8 -0.1 92
2018-09-17 09:00:00 10.5 2 Sudeste 5 Sudeste 0 964.8 -0.4 95
2018-09-17 08:00:00 10.6 3 Sudeste 6 Sudeste 0.2 964.7 -0.8 94
2018-09-17 07:00:00 12.1 2 Sudeste 5 Sudeste 0 964.9 -0.9 96
2018-09-17 06:00:00 12.7 3 Sudeste 5 Sudeste 0 965.2 -1.4 97
2018-09-17 05:00:00 13 2 Sudeste 4 Sudeste 0 965.5 -1.6 95
2018-09-17 04:00:00 13.6 3 Sudeste 5 Sudeste 0 965.8 -1.5 95
2018-09-17 03:00:00 14.2 3 Sudoeste 6 Sur 0 966.6 -1.4 95
2018-09-17 02:00:00 14.6 4 Sudoeste 8 Oeste 0 967.1 -1.4 95
2018-09-17 01:00:00 15.6 2 Sudeste 4 Sudeste 0 967.3 -1.2 95
2018-09-17 00:00:00 15.6 2 Sudoeste 3 Sudoeste 0 968 0 93
2018-09-16 23:00:00 14.9 0 Calma 3 Sur 0 968.5 0.3 89
2018-09-16 22:00:00 16.2 0 Calma 4 Noroeste 0 968.5 0.5 83
2018-09-16 21:00:00 17.7 0 Calma 9 Nordeste 0 968 -0.2 85
2018-09-16 20:00:00 19.5 7 Nordeste 14 Nordeste 0 968.2 -0.4 80
2018-09-16 19:00:00 21.4 5 Nordeste 13 Nordeste 0 968 -1.3 74
2018-09-16 18:00:00 23.3 4 Norte 15 Noroeste 0 968.2 -1.6 67
2018-09-16 17:00:00 23.4 4 Norte 13 Este 0 968.6 -1.5 66
2018-09-16 16:00:00 22.3 5 Este 13 Noroeste 0 969.3 -1.2 70
2018-09-16 15:00:00 21.2 4 Nordeste 12 Este 0 969.8 -0.5 75
2018-09-16 14:00:00 19.8 5 Sudeste 11 Este 0 970.1 -0.3 79
2018-09-16 13:00:00 18.6 4 Nordeste 17 Este 0 970.5 0.9 85
2018-09-16 12:00:00 16.7 6 Este 10 Este 0 970.3 0.7 93
2018-09-16 11:00:00 15.7 3 Norte 11 Nordeste 0 970.4 1.3 96
2018-09-16 10:00:00 15.1 7 Nordeste 11 Nordeste 0 969.6 0.6 97
2018-09-16 09:00:00 15.2 2 Norte 5 Norte 0 969.6 0.8 96
2018-09-16 08:00:00 15.1 0 Calma 6 Norte 0 969.1 0.1 96
2018-09-16 07:00:00 15.1 2 Norte 8 Oeste 0.2 969 0 96
2018-09-16 06:00:00 15.4 2 Noroeste 5 Nordeste 0 968.8 -0.4 96
2018-09-16 05:00:00 15.2 3 Este 5 Sudeste 0 969 -0.1 97
2018-09-16 04:00:00 15.1 3 Sudeste 7 Sudeste 0 969 -0.3 97
2018-09-16 03:00:00 15.3 0 Calma 5 Sudeste 0 969.2 0 96
2018-09-16 02:00:00 15.5 2 Sudeste 4 Norte 0 969.1 -0.2 96
2018-09-16 01:00:00 15.6 0 Calma 3 Sur 0 969.3 0.7 96
2018-09-16 00:00:00 15.8 2 Norte 4 Noroeste 0 969.2 1.3 94
2018-09-15 23:00:00 16.6 0 Calma 5 Oeste 0 969.3 1.6 85
2018-09-15 22:00:00 18.1 0 Calma 4 Norte 0 968.6 1.7 82
2018-09-15 21:00:00 20 2 Nordeste 9 Nordeste 0 967.9 1.1 79
2018-09-15 20:00:00 23.2 5 Norte 10 Norte 0 967.7 0.7 69
2018-09-15 19:00:00 25.5 7 Nordeste 14 Nordeste 0 966.9 -0.6 61
2018-09-15 18:00:00 27.1 5 Nordeste 14 Nordeste 0 966.8 -1.1 55
2018-09-15 17:00:00 26.9 5 Nordeste 17 Este 0 967 -1.5 54
2018-09-15 16:00:00 26.6 6 Norte 15 Nordeste 0 967.5 -1.1 55
2018-09-15 15:00:00 25.4 6 Nordeste 15 Nordeste 0 967.9 -1.2 57
2018-09-15 14:00:00 23.9 5 Nordeste 13 Norte 0 968.5 -0.6 62
2018-09-15 13:00:00 22.4 3 Nordeste 12 Este 0 968.6 -0.3 66
2018-09-15 12:00:00 20.4 4 Norte 13 Este 0 969.1 0.2 71
2018-09-15 11:00:00 17 3 Este 9 Este 0 969.1 0.9 84
2018-09-15 10:00:00 15.8 4 Este 15 Este 0 968.9 0.8 90
2018-09-15 09:00:00 15.5 6 Este 18 Nordeste 0 968.9 0.9 91
2018-09-15 08:00:00 15.4 7 Nordeste 18 Nordeste 0 968.2 0.1 93
2018-09-15 07:00:00 15.3 5 Nordeste 19 Nordeste 0 968.1 -0.5 93
2018-09-15 06:00:00 15.4 7 Nordeste 15 Nordeste 0 968 -1 93
2018-09-15 05:00:00 15.4 7 Nordeste 17 Nordeste 0 968.1 -0.9 93
2018-09-15 04:00:00 15.5 7 Nordeste 16 Nordeste 0 968.6 -0.7 94
2018-09-15 03:00:00 15.1 4 Nordeste 13 Nordeste 0 969 -0.4 95
2018-09-15 02:00:00 16 5 Nordeste 12 Este 0 969 -0.4 92
2018-09-15 01:00:00 16.5 3 Nordeste 12 Nordeste 0 969.3 0 90
2018-09-15 00:00:00 16.4 6 Nordeste 17 Este 0 969.4 0.3 91
2018-09-14 23:00:00 16.6 7 Nordeste 18 Nordeste 0 969.4 0.6 91
2018-09-14 22:00:00 17.1 8 Nordeste 26 Nordeste 0 969.3 0.7 89
2018-09-14 21:00:00 17.5 10 Nordeste 24 Nordeste 0 969.1 0.5 87
2018-09-14 20:00:00 18.2 9 Nordeste 27 Nordeste 0 968.8 0.3 84
2018-09-14 19:00:00 19.3 10 Nordeste 27 Este 0 968.6 0.1 78
2018-09-14 18:00:00 20.7 13 Nordeste 31 Nordeste 0 968.6 0 73
2018-09-14 17:00:00 22.3 13 Nordeste 30 Este 0 968.5 -0.5 68
2018-09-14 16:00:00 23.3 9 Nordeste 24 Nordeste 0 968.5 -1 65
2018-09-14 15:00:00 24 8 Nordeste 22 Nordeste 0 968.6 -1.2 63
2018-09-14 14:00:00 22.2 13 Nordeste 24 Nordeste 0 969 -0.4 66
2018-09-14 13:00:00 21 8 Nordeste 19 Este 0 969.5 0.4 71
2018-09-14 12:00:00 18.9 6 Nordeste 20 Este 0 969.8 1 79
2018-09-14 11:00:00 18 9 Nordeste 19 Este 0 969.4 0.9 82
2018-09-14 10:00:00 17.4 6 Este 10 Este 0 969.1 0.6 85
2018-09-14 09:00:00 16.7 4 Este 13 Este 0 968.8 0.5 88
2018-09-14 08:00:00 16.6 6 Nordeste 16 Este 0 968.5 -0.2 88
2018-09-14 07:00:00 16.4 7 Nordeste 17 Este 0 968.5 -0.5 90
2018-09-14 06:00:00 16 5 Nordeste 13 Nordeste 0 968.3 -1 92
2018-09-14 05:00:00 15.5 4 Este 6 Nordeste 0 968.7 -1 94
2018-09-14 04:00:00 15.4 5 Nordeste 12 Este 0 969 -1 93
2018-09-14 03:00:00 16.7 6 Nordeste 18 Nordeste 0 969.3 -0.7 90
2018-09-14 02:00:00 17 6 Nordeste 17 Este 0 969.7 -0.5 90
2018-09-14 01:00:00 17 8 Nordeste 22 Este 0 970 -0.1 91
2018-09-14 00:00:00 17 10 Nordeste 21 Este 0 970 0.3 90
2018-09-13 23:00:00 17 5 Nordeste 16 Nordeste 0 970.2 0.7 88
2018-09-13 22:00:00 16.6 7 Nordeste 21 Nordeste 0 970.1 0.8 89
2018-09-13 21:00:00 17.1 7 Nordeste 22 Nordeste 0 969.7 0.4 85
2018-09-13 20:00:00 18.4 9 Nordeste 28 Nordeste 0 969.5 0.1 81
2018-09-13 19:00:00 20.2 9 Nordeste 29 Nordeste 0 969.3 -0.5 73
2018-09-13 18:00:00 22.7 9 Nordeste 24 Este 0 969.3 -0.9 67
2018-09-13 17:00:00 23.5 10 Nordeste 23 Este 0 969.4 -1 66
2018-09-13 16:00:00 24.8 8 Nordeste 26 Nordeste 0 969.8 -1.2 61
2018-09-13 15:00:00 24.6 10 Nordeste 22 Este 0 970.2 -1 60
2018-09-13 14:00:00 24.3 10 Nordeste 20 Este 0 970.4 -0.7 61
2018-09-13 13:00:00 23.3 8 Este 19 Nordeste 0 971 0.2 62
2018-09-13 12:00:00 21.6 8 Nordeste 21 Este 0 971.2 0.5 68
2018-09-13 11:00:00 19 9 Nordeste 22 Nordeste 0 971.1 0.6 79
2018-09-13 10:00:00 17.5 4 Este 7 Nordeste 0 970.8 0.6 87
2018-09-13 09:00:00 14.5 0 Calma 4 Sur 0 970.7 0.4 90
2018-09-13 08:00:00 15.1 0 Calma 5 Nordeste 0 970.5 -0.1 88
2018-09-13 07:00:00 16.3 2 Nordeste 11 Nordeste 0 970.2 -0.6 91
2018-09-13 06:00:00 16.7 3 Nordeste 11 Este 0 970.3 -0.8 91
2018-09-13 05:00:00 16.8 3 Nordeste 9 Nordeste 0 970.6 -0.8 93
2018-09-13 04:00:00 16.8 3 Nordeste 8 Nordeste 0 970.8 -0.9 93
2018-09-13 03:00:00 16.5 0 Calma 3 Norte 0 971.1 -1 92
2018-09-13 02:00:00 15.8 0 Calma 4 Nordeste 0 971.4 -0.7 91
2018-09-13 01:00:00 15.6 0 Calma 3 Norte 0 971.7 -0.1 90
2018-09-13 00:00:00 15.7 2 Este 5 Nordeste 0 972.1 1 90
2018-09-12 23:00:00 16.4 0 Calma 15 Este 0 972.1 1.3 88
2018-09-12 22:00:00 17.1 7 Nordeste 19 Este 0 971.8 1.3 87
2018-09-12 21:00:00 18.1 9 Nordeste 24 Nordeste 0 971.1 0.9 86
2018-09-12 20:00:00 19.6 7 Nordeste 19 Nordeste 0 970.8 0.5 81
2018-09-12 19:00:00 21.9 9 Nordeste 26 Nordeste 0 970.5 0 73
2018-09-12 18:00:00 24.8 12 Nordeste 21 Nordeste 0 970.2 -0.8 64
2018-09-12 17:00:00 26.7 8 Nordeste 19 Nordeste 0 970.3 -1.1 56
2018-09-12 16:00:00 27.1 6 Nordeste 16 Norte 0 970.5 -1.2 52
2018-09-12 15:00:00 25.7 8 Nordeste 17 Nordeste 0 971 -0.6 57
2018-09-12 14:00:00 24.8 7 Nordeste 15 Este 0 971.4 -0.1 60
2018-09-12 13:00:00 23.1 5 Nordeste 14 Nordeste 0 971.7 0.8 68
2018-09-12 12:00:00 20.4 8 Este 15 Nordeste 0 971.6 0.8 77
2018-09-12 11:00:00 17.3 5 Nordeste 14 Nordeste 0 971.5 1.3 93
2018-09-12 10:00:00 15.4 8 Nordeste 14 Nordeste 0 970.9 1.3 99
2018-09-12 09:00:00 14.1 4 Sudeste 8 Sudeste 0 970.8 1.2 98
2018-09-12 08:00:00 13 4 Sudeste 6 Sudeste 0 970.2 0.5 98
2018-09-12 07:00:00 13 3 Oeste 4 Oeste 0 969.6 -0.2 94
2018-09-12 06:00:00 13.6 0 Calma 4 Sudeste 0 969.6 -0.2 94
2018-09-12 05:00:00 14.5 0 Calma 5 Sudeste 0 969.7 -0.4 97
2018-09-12 04:00:00 14.1 0 Calma 4 Sudeste 0 969.8 -0.6 96
2018-09-12 03:00:00 14.5 2 Sur 4 Sudeste 0 969.8 -0.6 89
2018-09-12 02:00:00 15.2 2 Sur 5 Sudeste 0 970.1 0.1 89
2018-09-12 01:00:00 16.2 2 Sudeste 9 Sudeste 0 970.4 0.9 90
2018-09-12 00:00:00 17 3 Sudeste 8 Sudeste 0 970.4 1.3 87
2018-09-11 23:00:00 18.5 2 Sudeste 5 Norte 0 970 1.3 82
2018-09-11 22:00:00 20.3 3 Norte 12 Nordeste 0 969.5 0.9 78
2018-09-11 21:00:00 22.6 3 Nordeste 13 Norte 0 969.1 0.4 68
2018-09-11 20:00:00 25.2 5 Nordeste 23 Este 0 968.7 -0.4 55
2018-09-11 19:00:00 27.2 6 Nordeste 23 Nordeste 0 968.6 -1 54
2018-09-11 18:00:00 30.8 8 Nordeste 16 Nordeste 0 968.7 -1.5 41
2018-09-11 17:00:00 31 5 Este 16 Nordeste 0 969.1 -1.9 33
2018-09-11 16:00:00 31.2 5 Norte 14 Este 0 969.6 -2.2 33
2018-09-11 15:00:00 30.1 5 Oeste 12 Sudoeste 0 970.2 -2.2 37
2018-09-11 14:00:00 27.7 4 Noroeste 9 Noroeste 0 971 -1.5 50
2018-09-11 13:00:00 23.9 4 Nordeste 10 Nordeste 0 971.8 -0.4 64
2018-09-11 12:00:00 20.1 3 Norte 8 Norte 0 972.4 0.3 77
2018-09-11 11:00:00 16.2 3 Nordeste 8 Norte 0 972.5 0.8 92
2018-09-11 10:00:00 14.1 2 Este 5 Sudeste 0 972.2 0.7 93
2018-09-11 09:00:00 12.6 3 Sudeste 5 Sur 0 972.1 0.4 97
2018-09-11 08:00:00 12.3 0 Calma 5 Sudeste 0 971.7 -0.1 95
2018-09-11 07:00:00 12.7 3 Sur 6 Sur 0 971.5 -0.3 97
2018-09-11 06:00:00 12.8 2 Sur 4 Sudeste 0 971.7 -0.3 90
2018-09-11 05:00:00 13.6 3 Sudeste 6 Sudeste 0 971.8 -0.3 94
2018-09-11 04:00:00 14.4 4 Sudoeste 8 Sur 0 971.8 -0.7 96
2018-09-11 03:00:00 14.8 3 Sudoeste 6 Sudoeste 0 972 -0.6 96
2018-09-11 02:00:00 15.3 0 Calma 3 Sudoeste 0 972.1 -0.4 95
2018-09-11 01:00:00 15 0 Calma 4 Sur 0 972.5 0.1 93
2018-09-11 00:00:00 15.5 2 Sudoeste 5 Noroeste 0 972.6 0.7 91
2018-09-10 23:00:00 17 2 Noroeste 7 Norte 0 972.5 0.9 88
2018-09-10 22:00:00 17.8 3 Nordeste 13 Nordeste 0 972.4 1.3 87
2018-09-10 21:00:00 19.5 3 Norte 14 Nordeste 0 971.9 0.7 83
2018-09-10 20:00:00 22 6 Nordeste 19 Nordeste 0 971.6 0 75
2018-09-10 19:00:00 25.1 9 Nordeste 24 Nordeste 0 971.1 -1.1 58
2018-09-10 18:00:00 27.7 8 Nordeste 18 Nordeste 0 971.2 -1.5 40
2018-09-10 17:00:00 28.2 6 Nordeste 14 Nordeste 0 971.6 -1.5 40
2018-09-10 16:00:00 27.8 5 Nordeste 14 Norte 0 972.2 -1.1 45
2018-09-10 15:00:00 25.8 5 Este 13 Norte 0 972.7 -0.8 52
2018-09-10 14:00:00 24.5 5 Noroeste 12 Sudoeste 0 973.1 -0.4 58
2018-09-10 13:00:00 22.5 4 Oeste 9 Oeste 0 973.3 0 64
2018-09-10 12:00:00 19.7 4 Sur 10 Nordeste 0 973.5 0.5 74
2018-09-10 11:00:00 16.5 4 Nordeste 11 Este 0 973.5 0.8 85
2018-09-10 10:00:00 15.7 5 Nordeste 12 Este 0 973.3 1 88
2018-09-10 09:00:00 15.7 2 Sudeste 7 Nordeste 0 973 0.9 91
2018-09-10 08:00:00 15.9 2 Este 9 Sur 0 972.7 0.5 89
2018-09-10 07:00:00 16.2 3 Sudeste 7 Sudeste 0 972.3 -0.1 90
2018-09-10 06:00:00 16.4 2 Este 6 Nordeste 0 972.1 -0.3 89
2018-09-10 05:00:00 16.4 4 Nordeste 14 Nordeste 0 972.2 -0.4 89
2018-09-10 04:00:00 16.7 5 Este 15 Nordeste 0 972.4 -0.1 88
2018-09-10 03:00:00 16.9 4 Nordeste 12 Este 0 972.4 0 88
2018-09-10 02:00:00 17.2 3 Nordeste 8 Norte 0 972.6 0.4 88
2018-09-10 01:00:00 17.3 0 Calma 10 Nordeste 0 972.5 0.7 88
2018-09-10 00:00:00 17.2 3 Nordeste 11 Nordeste 0 972.4 1.3 88
2018-09-09 23:00:00 17.1 3 Nordeste 13 Nordeste 0 972.2 1.5 87
2018-09-09 22:00:00 17.3 7 Nordeste 17 Nordeste 0 971.8 2 87
2018-09-09 21:00:00 17.9 5 Nordeste 24 Nordeste 0 971.1 1.3 84
2018-09-09 20:00:00 19.9 8 Nordeste 23 Nordeste 0 970.7 1.2 77
2018-09-09 19:00:00 22.2 9 Nordeste 25 Nordeste 0 969.8 0.2 67
2018-09-09 18:00:00 23.5 10 Nordeste 23 Nordeste 0 969.8 0.1 63
2018-09-09 17:00:00 24.8 5 Nordeste 27 Nordeste 0 969.5 -0.2 60
2018-09-09 16:00:00 24.7 10 Nordeste 24 Este 0 969.6 -0.4 57
2018-09-09 15:00:00 26.1 4 Nordeste 15 Nordeste 0 969.7 -0.6 49
2018-09-09 14:00:00 25 5 Nordeste 15 Este 0 969.7 -0.4 49
2018-09-09 13:00:00 23.2 5 Nordeste 11 Nordeste 0 970 0.2 54
2018-09-09 12:00:00 21.7 3 Norte 10 Nordeste 0 970.3 0.9 60
2018-09-09 11:00:00 18.4 4 Oeste 6 Sudoeste 0 970.1 1.4 75
2018-09-09 10:00:00 15 2 Este 6 Oeste 0 969.8 1.5 88
2018-09-09 09:00:00 11.6 3 Oeste 5 Noroeste 0 969.4 1.4 95
2018-09-09 08:00:00 10.9 0 Calma 6 Sur 0 968.7 1 93
2018-09-09 07:00:00 11.2 0 Calma 5 Sudeste 0 968.3 0.8 92
2018-09-09 06:00:00 11.5 3 Sudeste 6 Este 0 968 1 94
2018-09-09 05:00:00 11.9 3 Sur 6 Sur 0 967.7 0.4 91
2018-09-09 04:00:00 12.8 2 Sudeste 8 Oeste 0 967.5 -0.2 91
2018-09-09 03:00:00 14.2 2 Sur 10 Noroeste 0 967 -0.7 87
2018-09-09 02:00:00 16 2 Noroeste 18 Sudeste 0 967.3 -0.2 83
2018-09-09 01:00:00 17.1 9 Sur 20 Sudeste 0 967.7 1.1 81
2018-09-09 00:00:00 17.1 7 Sudoeste 20 Sudoeste 0 967.7 1.5 76
2018-09-08 23:00:00 16.5 4 Sur 9 Oeste 0 967.5 1.7 81
2018-09-08 22:00:00 17.9 3 Sur 6 Sudeste 0 966.6 2.8 74
2018-09-08 21:00:00 18.6 4 Este 28 Oeste 0 966.2 2.8 70
2018-09-08 20:00:00 21.6 16 Sudoeste 26 Sudoeste 0 965.8 2 62
2018-09-08 19:00:00 26.3 0 Calma 15 Noroeste 0 963.8 -0.3 49
2018-09-08 18:00:00 28.6 5 Nordeste 14 Nordeste 0 963.4 -1.2 38
2018-09-08 17:00:00 28.7 7 Nordeste 15 Norte 0 963.8 -1.1 37
2018-09-08 16:00:00 28.8 4 Norte 12 Oeste 0 964.1 -1.3 35
2018-09-08 15:00:00 27.3 6 Noroeste 15 Sudoeste 0 964.6 -0.9 39
2018-09-08 14:00:00 24.9 6 Oeste 10 Sur 0 964.9 -0.3 52
2018-09-08 13:00:00 21.6 4 Este 10 Este 0 965.4 0.5 67
2018-09-08 12:00:00 17.9 4 Nordeste 8 Nordeste 0 965.5 0.8 80
2018-09-08 11:00:00 13.6 3 Nordeste 6 Nordeste 0 965.2 0.8 95
2018-09-08 10:00:00 11.7 0 Calma 9 Sur 0 964.9 0.7 97
2018-09-08 09:00:00 11.5 3 Sur 6 Oeste 0 964.7 0.4 95
2018-09-08 08:00:00 11.6 3 Sudoeste 8 Sudoeste 0 964.4 -0.2 95
2018-09-08 07:00:00 12.2 5 Sudoeste 11 Oeste 0 964.2 -0.6 97
2018-09-08 06:00:00 13.1 2 Sudoeste 7 Sudeste 0 964.3 -0.7 97
2018-09-08 05:00:00 12.9 3 Sudeste 8 Nordeste 0 964.6 -0.6 96
2018-09-08 04:00:00 12.1 2 Sudeste 4 Sur 0 964.8 -0.5 95
2018-09-08 03:00:00 12.3 3 Sudoeste 4 Oeste 0 965 -0.6 92
2018-09-08 02:00:00 13 0 Calma 5 Norte 0 965.2 -0.5 92
2018-09-08 01:00:00 13.7 3 Norte 5 Este 0 965.3 -0.2 93
2018-09-08 00:00:00 14.2 2 Norte 8 Nordeste 0 965.6 0.6 93
2018-09-07 23:00:00 14.5 2 Noroeste 13 Nordeste 0 965.7 0.9 92
2018-09-07 22:00:00 15.1 3 Nordeste 12 Nordeste 0 965.5 1.1 90
2018-09-07 21:00:00 16.4 5 Nordeste 23 Nordeste 0 965 0.5 85
2018-09-07 20:00:00 18 10 Nordeste 26 Nordeste 0 964.8 -0.2 78
2018-09-07 19:00:00 19.9 6 Nordeste 23 Nordeste 0 964.4 -0.7 73
2018-09-07 18:00:00 21.2 9 Nordeste 28 Nordeste 0 964.5 -0.9 67
2018-09-07 17:00:00 21.7 10 Nordeste 27 Nordeste 0 965 -0.8 66
2018-09-07 16:00:00 22.8 7 Nordeste 28 Nordeste 0 965.1 -1.2 63
2018-09-07 15:00:00 22.1 10 Nordeste 25 Nordeste 0 965.4 -1.1 66
2018-09-07 14:00:00 21 10 Nordeste 22 Nordeste 0 965.8 -0.8 68
2018-09-07 13:00:00 20.3 8 Nordeste 24 Este 0 966.3 -0.3 71
2018-09-07 12:00:00 19.2 9 Este 23 Este 0 966.5 0.1 75
2018-09-07 11:00:00 16.6 10 Nordeste 22 Nordeste 0 966.6 0.3 82
2018-09-07 10:00:00 15.2 10 Nordeste 19 Nordeste 0 966.6 0.5 88
2018-09-07 09:00:00 13.6 3 Nordeste 7 Nordeste 0 966.4 0.3 95
2018-09-07 08:00:00 13.3 3 Nordeste 12 Nordeste 0 966.3 0.2 96
2018-09-07 07:00:00 13.2 6 Nordeste 13 Nordeste 0 966.1 -0.2 97
2018-09-07 06:00:00 12.1 4 Nordeste 9 Nordeste 0 966.1 -0.3 96
2018-09-07 05:00:00 11.9 3 Este 7 Este 0 966.1 -0.5 91
2018-09-07 04:00:00 12.9 0 Calma 6 Nordeste 0 966.3 -0.7 93
2018-09-07 03:00:00 13.5 3 Nordeste 11 Nordeste 0 966.4 -0.8 94
2018-09-07 02:00:00 13.5 3 Nordeste 14 Nordeste 0 966.6 -0.9 94
2018-09-07 01:00:00 13.9 4 Nordeste 18 Nordeste 0 967 -0.4 92
2018-09-07 00:00:00 14 6 Nordeste 15 Nordeste 0 967.2 0 92
2018-09-06 23:00:00 14.4 7 Nordeste 26 Nordeste 0 967.5 0.6 91
2018-09-06 22:00:00 15.2 9 Nordeste 25 Nordeste 0 967.4 0.3 89
2018-09-06 21:00:00 15.2 10 Nordeste 31 Nordeste 0 967.2 0.3 88
2018-09-06 20:00:00 15.7 12 Nordeste 28 Nordeste 0 966.9 -0.3 87
2018-09-06 19:00:00 16 15 Nordeste 31 Nordeste 0 967.1 -0.5 85
2018-09-06 18:00:00 16.9 13 Nordeste 32 Nordeste 0 966.9 -1.1 82
2018-09-06 17:00:00 18.3 12 Nordeste 36 Este 0 967.2 -0.7 78
2018-09-06 16:00:00 17.4 14 Nordeste 30 Este 0 967.6 -0.3 80
2018-09-06 15:00:00 17.7 15 Nordeste 31 Este 0 968 -0.1 80
2018-09-06 14:00:00 17.4 13 Nordeste 34 Este 0.2 967.9 0.4 82
2018-09-06 13:00:00 16.5 15 Nordeste 33 Nordeste 0 967.9 0.7 86
2018-09-06 12:00:00 15.4 14 Nordeste 36 Nordeste 0 968.1 1 92
2018-09-06 11:00:00 16.8 10 Nordeste 23 Nordeste 0 967.5 0.9 85
2018-09-06 10:00:00 16 7 Nordeste 15 Nordeste 0 967.2 0.9 91
2018-09-06 09:00:00 14.7 3 Nordeste 9 Este 0 967.1 0.7 96
2018-09-06 08:00:00 14.2 0 Calma 5 Norte 0 966.6 0.2 95
2018-09-06 07:00:00 14.2 4 Este 13 Este 0 966.3 -0.2 96
2018-09-06 06:00:00 14.1 5 Nordeste 14 Nordeste 0 966.4 -0.2 96
2018-09-06 05:00:00 14.7 7 Nordeste 17 Nordeste 0.2 966.4 -0.4 96
2018-09-06 04:00:00 14.7 4 Nordeste 17 Este 0.2 966.5 -0.4 95
2018-09-06 03:00:00 14.7 7 Nordeste 19 Nordeste 0 966.6 -0.4 93
2018-09-06 02:00:00 14.7 3 Nordeste 13 Norte 0 966.8 0.2 91
2018-09-06 01:00:00 14.8 2 Norte 14 Norte 0 966.9 0.5 90
2018-09-06 00:00:00 15.2 5 Nordeste 16 Nordeste 0 967 1.4 90
2018-09-05 23:00:00 15.4 8 Nordeste 26 Nordeste 0 966.6 0.9 92
2018-09-05 22:00:00 15.6 7 Nordeste 17 Nordeste 0 966.4 0.8 90
2018-09-05 21:00:00 16.1 5 Nordeste 19 Este 0 965.6 0.2 87
2018-09-05 20:00:00 17.1 5 Nordeste 24 Nordeste 0 965.7 0.1 83
2018-09-05 19:00:00 17.4 5 Nordeste 31 Este 0 965.6 0.2 82
2018-09-05 18:00:00 17.5 11 Nordeste 25 Nordeste 0 965.4 -0.1 81
2018-09-05 17:00:00 17.5 13 Nordeste 30 Este 0 965.6 0.4 80
2018-09-05 16:00:00 17.9 14 Nordeste 33 Nordeste 0 965.4 0.1 78
2018-09-05 15:00:00 19 14 Nordeste 30 Nordeste 0 965.5 0.1 74
2018-09-05 14:00:00 18.9 13 Nordeste 25 Nordeste 0 965.2 0.5 78
2018-09-05 13:00:00 19.1 11 Nordeste 21 Nordeste 0 965.3 1.1 78
2018-09-05 12:00:00 17.7 9 Nordeste 19 Este 0 965.4 1.6 81
2018-09-05 11:00:00 17.2 9 Nordeste 21 Nordeste 0 964.7 0.9 84
2018-09-05 10:00:00 15.2 5 Nordeste 15 Nordeste 0 964.2 0.7 95
2018-09-05 09:00:00 14.1 6 Nordeste 15 Nordeste 0 963.8 0.7 97
2018-09-05 08:00:00 13.7 3 Nordeste 10 Este 0 963.8 0.4 97
2018-09-05 07:00:00 14.1 2 Norte 9 Nordeste 0 963.5 -0.3 94
2018-09-05 06:00:00 14.5 6 Nordeste 19 Este 0 963.1 -0.4 94
2018-09-05 05:00:00 14.8 4 Oeste 17 Nordeste 0.6 963.4 0.1 96
2018-09-05 04:00:00 15 8 Nordeste 22 Este 1.8 963.8 0.1 93
2018-09-05 03:00:00 15.5 11 Nordeste 36 Nordeste 1.4 963.5 0.1 92
2018-09-05 02:00:00 16 11 Nordeste 23 Nordeste 0.6 963.3 -0.2 91
2018-09-05 01:00:00 16.3 6 Nordeste 21 Nordeste 0 963.7 0.1 88
2018-09-05 00:00:00 16.5 6 Nordeste 18 Este 0 963.4 0.6 89
2018-09-04 23:00:00 16.8 9 Nordeste 21 Este 0 963.5 0.8 87
2018-09-04 22:00:00 17 7 Nordeste 20 Nordeste 0 963.6 1.1 86
2018-09-04 21:00:00 17.8 10 Nordeste 33 Nordeste 0 962.8 0.4 81
2018-09-04 20:00:00 18.8 15 Nordeste 32 Nordeste 0 962.7 0.2 77
2018-09-04 19:00:00 20.3 16 Nordeste 35 Nordeste 0 962.5 -0.4 69
2018-09-04 18:00:00 21.5 12 Nordeste 31 Nordeste 0 962.4 -0.9 60
2018-09-04 17:00:00 22 16 Nordeste 30 Nordeste 0 962.5 -1.3 57
2018-09-04 16:00:00 21.9 13 Nordeste 37 Nordeste 0 962.9 -1.1 57
2018-09-04 15:00:00 21.4 12 Nordeste 29 Nordeste 0 963.3 -0.8 65
2018-09-04 14:00:00 19.8 10 Nordeste 25 Nordeste 0 963.8 0.1 74
2018-09-04 13:00:00 17.2 4 Nordeste 25 Este 0 964 0.5 88
2018-09-04 12:00:00 17.7 8 Nordeste 21 Este 0 964.1 0.8 79
2018-09-04 11:00:00 16.5 8 Nordeste 17 Este 0 963.7 0.8 85
2018-09-04 10:00:00 15.7 9 Nordeste 17 Nordeste 0.2 963.5 1 89
2018-09-04 09:00:00 15.1 6 Nordeste 15 Nordeste 0 963.3 0.6 92
2018-09-04 08:00:00 15.3 4 Nordeste 15 Nordeste 0 962.9 0.1 88
2018-09-04 07:00:00 15.1 5 Nordeste 19 Nordeste 0 962.5 -0.3 89
2018-09-04 06:00:00 14.7 5 Nordeste 14 Nordeste 0 962.7 -0.6 90
2018-09-04 05:00:00 15 3 Nordeste 16 Nordeste 0 962.8 -0.7 88
2018-09-04 04:00:00 15.5 8 Nordeste 21 Nordeste 0 962.8 -0.8 86
2018-09-04 03:00:00 15.7 7 Nordeste 24 Nordeste 0 963.3 -0.6 82
2018-09-04 02:00:00 15.9 10 Nordeste 25 Este 0 963.5 -0.5 82
2018-09-04 01:00:00 15.9 11 Nordeste 28 Nordeste 0 963.6 0.1 84
2018-09-04 00:00:00 16.1 11 Nordeste 26 Este 0 963.9 0.7 81
2018-09-03 23:00:00 16.3 11 Nordeste 28 Este 0 964 1 86
2018-09-03 22:00:00 16.7 11 Nordeste 26 Este 0 963.5 0.9 87
2018-09-03 21:00:00 17.4 10 Nordeste 22 Nordeste 0 963.2 0.7 86
2018-09-03 20:00:00 18.5 6 Nordeste 26 Nordeste 0 963 0.7 83
2018-09-03 19:00:00 19.2 10 Nordeste 32 Nordeste 0 962.6 0.3 80
2018-09-03 18:00:00 19.9 12 Nordeste 33 Este 0 962.5 0.3 78
2018-09-03 17:00:00 20.7 12 Nordeste 39 Este 0 962.3 -0.3 77
2018-09-03 16:00:00 22 18 Nordeste 36 Nordeste 0 962.3 -0.4 71
2018-09-03 15:00:00 22.5 12 Nordeste 32 Este 0 962.2 -0.9 68
2018-09-03 14:00:00 20.4 14 Nordeste 36 Nordeste 0 962.6 -0.7 71
2018-09-03 13:00:00 22 15 Nordeste 29 Nordeste 0 962.7 -1 63
2018-09-03 12:00:00 21.1 13 Nordeste 26 Nordeste 0 963.1 -0.4 69
2018-09-03 11:00:00 18 12 Nordeste 23 Este 0 963.3 0.9 80
2018-09-03 10:00:00 16.9 8 Este 18 Este 0 963.7 1.6 84
2018-09-03 09:00:00 15.8 6 Este 27 Este 0 963.5 1.3 87
2018-09-03 08:00:00 15.6 10 Nordeste 23 Nordeste 0 962.4 0.1 91
2018-09-03 07:00:00 15.6 8 Nordeste 20 Este 0 962.1 -0.4 93
2018-09-03 06:00:00 15.7 9 Nordeste 21 Este 0 962.2 -0.8 93
2018-09-03 05:00:00 15.9 9 Nordeste 21 Nordeste 0 962.3 -0.5 93
2018-09-03 04:00:00 15.8 4 Nordeste 16 Nordeste 0 962.5 -0.3 94
2018-09-03 03:00:00 16 3 Norte 8 Nordeste 0 963 -0.1 91
2018-09-03 02:00:00 16.4 4 Este 9 Nordeste 0 962.8 -0.1 90
2018-09-03 01:00:00 17.4 0 Calma 5 Norte 0 962.8 0 86
2018-09-03 00:00:00 17.9 0 Calma 11 Nordeste 0 963.1 0.7 84
2018-09-02 23:00:00 19.1 2 Noroeste 4 Noroeste 0 962.9 0.1 79
2018-09-02 22:00:00 19.9 2 Nordeste 7 Nordeste 0 962.8 0.5 76
2018-09-02 21:00:00 21.8 5 Nordeste 12 Nordeste 0 962.4 -0.1 71
2018-09-02 20:00:00 25.3 6 Nordeste 15 Nordeste 0 962.8 0.1 63
2018-09-02 19:00:00 29.4 4 Nordeste 24 Este 0 962.3 -0.5 55
2018-09-02 18:00:00 30.9 14 Nordeste 24 Este 0 962.5 -0.7 41
2018-09-02 17:00:00 31.5 14 Nordeste 22 Este 0 962.7 -1 43
2018-09-02 16:00:00 32.3 6 Nordeste 19 Nordeste 0 962.8 -1.4 43
2018-09-02 15:00:00 31.8 8 Nordeste 14 Nordeste 0 963.2 -1.4 46
2018-09-02 14:00:00 29.6 5 Nordeste 10 Nordeste 0 963.7 -1.2 54
2018-09-02 13:00:00 26.4 4 Oeste 8 Noroeste 0 964.2 -0.6 63
2018-09-02 12:00:00 22.8 4 Nordeste 8 Nordeste 0 964.6 0 74
2018-09-02 11:00:00 19 3 Noroeste 8 Nordeste 0 964.9 0.4 85
2018-09-02 10:00:00 16.1 3 Nordeste 5 Nordeste 0 964.8 0.4 93
2018-09-02 09:00:00 14.6 0 Calma 5 Sudeste 0 964.6 0.1 96
2018-09-02 08:00:00 14.4 0 Calma 7 Sudeste 0 964.5 -0.2 97
2018-09-02 07:00:00 14.5 2 Sudeste 6 Sudeste 0 964.4 -0.6 95
2018-09-02 06:00:00 15.2 0 Calma 6 Sudeste 0 964.5 -0.8 94
2018-09-02 05:00:00 16 2 Sur 6 Sudoeste 0 964.7 -0.9 94
2018-09-02 04:00:00 16.5 2 Sur 5 Sudeste 0 965 -0.9 95
2018-09-02 03:00:00 17 0 Calma 5 Sudeste 0 965.3 -1 96
2018-09-02 02:00:00 17.2 0 Calma 4 Nordeste 0 965.6 -0.8 95
2018-09-02 01:00:00 17.6 0 Calma 4 Nordeste 0 965.9 -0.3 94
2018-09-02 00:00:00 17.7 0 Calma 4 Oeste 0 966.3 0.3 93
2018-09-01 23:00:00 17.6 3 Oeste 6 Este 0 966.4 0.5 90
2018-09-01 22:00:00 18.3 2 Nordeste 12 Este 0 966.2 0.5 89
2018-09-01 21:00:00 19.7 4 Nordeste 16 Nordeste 0 966 0.1 85
2018-09-01 20:00:00 21.6 7 Nordeste 21 Nordeste 0 965.9 -0.2 78
2018-09-01 19:00:00 24 6 Nordeste 28 Nordeste 0 965.7 -0.8 70
2018-09-01 18:00:00 25.2 6 Nordeste 24 Nordeste 0 965.9 -0.8 66
2018-09-01 17:00:00 25.6 10 Nordeste 24 Nordeste 0 966.1 -1 65
2018-09-01 16:00:00 27.8 9 Nordeste 24 Nordeste 0 966.5 -1.3 58
2018-09-01 15:00:00 27.6 8 Nordeste 19 Nordeste 0 966.7 -1.4 60
2018-09-01 14:00:00 26.3 6 Nordeste 18 Nordeste 0 967.1 -1.1 61
2018-09-01 13:00:00 24.9 7 Nordeste 16 Este 0 967.8 -0.3 63
2018-09-01 12:00:00 22.9 8 Nordeste 15 Nordeste 0 968.1 0.3 69
2018-09-01 11:00:00 20 11 Este 19 Este 0 968.2 0.4 78
2018-09-01 10:00:00 17.7 6 Este 15 Este 0 968.1 0.4 88
2018-09-01 09:00:00 15.1 5 Nordeste 12 Nordeste 0 967.8 -0.1 96
2018-09-01 08:00:00 14.7 4 Este 12 Nordeste 0 967.8 -0.1 96
2018-09-01 07:00:00 14.7 3 Nordeste 9 Nordeste 0 967.7 -0.5 96
2018-09-01 06:00:00 14.3 3 Nordeste 11 Nordeste 0 967.9 -0.5 95
2018-09-01 05:00:00 14.7 0 Calma 5 Nordeste 0 967.9 -0.6 90
2018-09-01 04:00:00 15.1 0 Calma 5 Este 0 968.2 -0.6 89
2018-09-01 03:00:00 15.7 3 Nordeste 10 Este 0 968.4 -0.6 93
2018-09-01 02:00:00 16.5 7 Nordeste 19 Nordeste 0 968.5 -0.5 93
2018-09-01 01:00:00 16.8 10 Nordeste 22 Nordeste 0 968.8 0.1 92
2018-09-01 00:00:00 16.6 9 Nordeste 21 Nordeste 0 969 0.6 93
2018-08-31 23:00:00 16.5 3 Nordeste 17 Nordeste 0 969 0.8 91
2018-08-31 22:00:00 17.3 8 Nordeste 14 Este 0 968.7 0.6 87
2018-08-31 21:00:00 18.5 6 Nordeste 21 Nordeste 0 968.4 0.2 81
2018-08-31 20:00:00 20.2 8 Nordeste 23 Este 0 968.2 0.1 76
2018-08-31 19:00:00 21.8 10 Nordeste 35 Nordeste 0 968.1 -0.1 71
2018-08-31 18:00:00 23.5 13 Nordeste 35 Este 0 968.2 -0.2 65
2018-08-31 17:00:00 25 15 Nordeste 30 Nordeste 0 968.1 -0.6 61
2018-08-31 16:00:00 26.3 11 Nordeste 28 Este 0 968.2 -1.1 58
2018-08-31 15:00:00 26.2 12 Nordeste 28 Este 0 968.4 -1.2 57
2018-08-31 14:00:00 25.3 8 Nordeste 23 Este 0 968.7 -0.9 58
2018-08-31 13:00:00 23.7 8 Nordeste 20 Este 0 969.3 -0.5 62
2018-08-31 12:00:00 22.1 7 Nordeste 20 Nordeste 0 969.6 0 67
2018-08-31 11:00:00 19.7 8 Nordeste 16 Este 0 969.6 0.3 74
2018-08-31 10:00:00 17.3 9 Nordeste 17 Este 0 969.8 0.7 83
2018-08-31 09:00:00 14.2 3 Este 7 Este 0 969.6 0.4 94
2018-08-31 08:00:00 13.7 4 Este 9 Este 0 969.3 0.1 93
2018-08-31 07:00:00 14.3 4 Este 8 Sudeste 0 969.1 0 93
2018-08-31 06:00:00 14.7 3 Este 10 Este 0 969.2 -0.5 94
2018-08-31 05:00:00 14.1 3 Este 8 Este 0 969.2 -0.7 94
2018-08-31 04:00:00 13.7 5 Este 9 Este 0 969.1 -1.1 94
2018-08-31 03:00:00 13.8 3 Este 9 Nordeste 0 969.7 -0.8 94
2018-08-31 02:00:00 13.4 4 Este 6 Nordeste 0 969.9 -0.9 90
2018-08-31 01:00:00 14.3 0 Calma 8 Este 0 970.2 -0.2 88
2018-08-31 00:00:00 15 2 Nordeste 12 Nordeste 0 970.5 0.3 92
2018-08-30 23:00:00 15.3 3 Nordeste 19 Este 0 970.8 1.1 90
2018-08-30 22:00:00 15.9 12 Nordeste 22 Nordeste 0 970.4 1 88
2018-08-30 21:00:00 16.9 8 Nordeste 22 Nordeste 0 970.2 0.7 81
2018-08-30 20:00:00 18.6 8 Nordeste 23 Nordeste 0 969.7 0.3 76
2018-08-30 19:00:00 20.8 11 Nordeste 24 Nordeste 0 969.4 -0.7 67
2018-08-30 18:00:00 22.6 9 Nordeste 22 Este 0 969.5 -0.9 61
2018-08-30 17:00:00 23.2 6 Nordeste 22 Este 0 969.4 -0.9 61
2018-08-30 16:00:00 22.4 11 Nordeste 24 Nordeste 0 970.1 -0.6 63
2018-08-30 15:00:00 22.2 10 Nordeste 21 Nordeste 0 970.4 -0.6 62
2018-08-30 14:00:00 21.4 10 Nordeste 19 Nordeste 0 970.3 -0.7 64
2018-08-30 13:00:00 19.9 4 Norte 20 Nordeste 0 970.7 -0.4 67
2018-08-30 12:00:00 17.3 8 Nordeste 19 Nordeste 0 971 0.4 75
2018-08-30 11:00:00 15 3 Este 6 Oeste 0 971 0.3 86
2018-08-30 10:00:00 13.3 3 Noroeste 8 Noroeste 0 971.1 0.8 88
2018-08-30 09:00:00 11.9 2 Noroeste 4 Noroeste 0 970.6 0.4 94
2018-08-30 08:00:00 11.8 0 Calma 4 Sudoeste 0 970.7 0 94
2018-08-30 07:00:00 11.4 2 Oeste 4 Oeste 0 970.3 -0.7 92
2018-08-30 06:00:00 12.9 0 Calma 5 Norte 0 970.2 -1.4 87
2018-08-30 05:00:00 13.6 2 Norte 8 Norte 0 970.7 -1.3 88
2018-08-30 04:00:00 14.1 2 Norte 6 Nordeste 0 971 -1 86
2018-08-30 03:00:00 14.4 4 Nordeste 13 Nordeste 0 971.6 -0.6 86
2018-08-30 02:00:00 14.7 4 Nordeste 13 Nordeste 0 972 -0.2 87
2018-08-30 01:00:00 15 4 Nordeste 18 Nordeste 0 972 0.2 85
2018-08-30 00:00:00 15.2 6 Nordeste 23 Nordeste 0 972.2 1.1 84
2018-08-29 23:00:00 15.6 6 Nordeste 18 Nordeste 0 972.2 1.2 85
2018-08-29 22:00:00 16 5 Nordeste 22 Este 0 971.8 1.3 84
2018-08-29 21:00:00 16.6 6 Nordeste 24 Nordeste 0 971.1 1.1 82
2018-08-29 20:00:00 18.4 6 Norte 21 Nordeste 0 971 1.2 75
2018-08-29 19:00:00 20.2 8 Nordeste 23 Nordeste 0 970.5 0.5 69
2018-08-29 18:00:00 22.9 8 Norte 20 Este 0 970 -0.4 58
2018-08-29 17:00:00 23.7 7 Nordeste 20 Nordeste 0 969.8 -0.9 54
2018-08-29 16:00:00 24.9 6 Nordeste 16 Norte 0 970 -0.8 42
2018-08-29 15:00:00 23.6 6 Noroeste 18 Este 0 970.4 -0.3 45
2018-08-29 14:00:00 22.3 5 Nordeste 15 Norte 0 970.7 0.1 52
2018-08-29 13:00:00 21.5 5 Norte 15 Norte 0 970.8 0.5 56
2018-08-29 12:00:00 19.5 5 Norte 12 Este 0 970.7 0.3 63
2018-08-29 11:00:00 17.6 5 Este 10 Sudeste 0 970.6 0.8 68
2018-08-29 10:00:00 15.7 3 Sudeste 10 Oeste 0 970.3 1.2 79
2018-08-29 09:00:00 14.5 3 Noroeste 11 Norte 0 970.4 1.7 84
2018-08-29 08:00:00 15.3 2 Norte 6 Norte 0 969.8 1.1 88
2018-08-29 07:00:00 15.4 4 Noroeste 12 Noroeste 0 969.1 0.7 88
2018-08-29 06:00:00 15.8 4 Oeste 9 Noroeste 0 968.7 0.5 90
2018-08-29 05:00:00 15.9 2 Nordeste 11 Nordeste 0 968.7 0.6 90
2018-08-29 04:00:00 16.1 3 Noroeste 13 Oeste 0 968.4 0.7 91
2018-08-29 03:00:00 16.2 6 Oeste 12 Noroeste 0 968.2 0.7 92
2018-08-29 02:00:00 16.5 4 Sudoeste 13 Oeste 0 968.1 1 92
2018-08-29 01:00:00 17.1 7 Oeste 15 Oeste 0 967.7 1.3 87
2018-08-29 00:00:00 17.6 5 Oeste 17 Oeste 0 967.5 1.9 87
2018-08-28 23:00:00 18.7 6 Oeste 20 Oeste 0 967.1 2.3 87
2018-08-28 22:00:00 20.3 5 Oeste 13 Oeste 0 966.4 2.5 75
2018-08-28 21:00:00 20.8 7 Oeste 25 Oeste 0 965.6 2.3 72
2018-08-28 20:00:00 22.1 12 Oeste 30 Oeste 0 964.8 1.4 67
2018-08-28 19:00:00 26.1 10 Oeste 28 Oeste 0 963.9 0.1 54
2018-08-28 18:00:00 28.3 9 Oeste 31 Sudoeste 0 963.3 -0.4 47
2018-08-28 17:00:00 28.5 12 Oeste 28 Oeste 0 963.4 0 45
2018-08-28 16:00:00 28 12 Oeste 28 Sudoeste 0 963.8 0.5 45
2018-08-28 15:00:00 28 11 Oeste 31 Oeste 0 963.7 1.2 43
2018-08-28 14:00:00 27.5 10 Oeste 23 Sudoeste 0 963.4 1.4 45
2018-08-28 13:00:00 25.7 12 Sudoeste 25 Oeste 0 963.3 0.9 49
2018-08-28 12:00:00 25.2 7 Oeste 12 Sudoeste 0 962.5 -0.9 51
2018-08-28 11:00:00 21.6 3 Oeste 21 Sudeste 0 962 -1.6 63
2018-08-28 10:00:00 19.3 10 Sudeste 23 Sudeste 0 962.4 -1.7 68
2018-08-28 09:00:00 17.2 5 Sur 14 Sudeste 0 963.4 0.1 84
2018-08-28 08:00:00 16.7 5 Sur 14 Sur 0.2 963.6 -1.3 85
2018-08-28 07:00:00 16.7 4 Sudoeste 14 Sur 0.2 964.1 0.5 89
2018-08-28 06:00:00 16.5 7 Sudeste 13 Sur 0.4 963.3 -0.8 91
2018-08-28 05:00:00 16.6 6 Sur 13 Sudoeste 0 964.9 0.8 92
2018-08-28 04:00:00 16.4 7 Nordeste 15 Sudoeste 0.2 963.6 0.3 95
2018-08-28 03:00:00 16.6 4 Sudoeste 10 Norte 0 964.1 0.7 94
2018-08-28 02:00:00 16.4 2 Sur 8 Sur 0 964.1 0.8 92
2018-08-28 01:00:00 16.6 0 Calma 5 Nordeste 0 963.3 0.3 91
2018-08-28 00:00:00 16.6 3 Norte 7 Noroeste 0 963.4 0.3 91
2018-08-27 23:00:00 17.1 2 Norte 10 Este 0 963.3 0 86
2018-08-27 22:00:00 17.9 4 Nordeste 10 Nordeste 0 963 -0.7 82
2018-08-27 21:00:00 19.5 4 Nordeste 18 Nordeste 0 963.1 -0.8 79
2018-08-27 20:00:00 21.2 5 Nordeste 22 Nordeste 0 963.3 -0.5 74
2018-08-27 19:00:00 23 10 Nordeste 24 Nordeste 0 963.7 -0.3 68
2018-08-27 18:00:00 24.9 10 Nordeste 25 Nordeste 0 963.9 -0.4 63
2018-08-27 17:00:00 26.5 6 Nordeste 22 Nordeste 0 963.8 -1 60
2018-08-27 16:00:00 26.9 9 Nordeste 23 Este 0 964 -1 60
2018-08-27 15:00:00 26.5 9 Nordeste 18 Nordeste 0 964.3 -0.9 60
2018-08-27 14:00:00 26.1 8 Nordeste 21 Nordeste 0 964.8 -0.4 59
2018-08-27 13:00:00 25.3 6 Nordeste 16 Nordeste 0 965 -0.2 61
2018-08-27 12:00:00 23.4 5 Nordeste 17 Este 0 965.2 0.1 66
2018-08-27 11:00:00 20.6 6 Nordeste 11 Este 0 965.2 0.3 73
2018-08-27 10:00:00 16.6 4 Este 8 Nordeste 0 965.2 0.6 85
2018-08-27 09:00:00 11.6 0 Calma 5 Sur 0 965.1 0.2 96
2018-08-27 08:00:00 10.5 2 Sur 3 Sur 0 964.9 0 91
2018-08-27 07:00:00 10.8 0 Calma 5 Sur 0 964.6 -0.6 90
2018-08-27 06:00:00 11.1 3 Sur 4 Sur 0 964.9 -0.3 89
2018-08-27 05:00:00 11.8 0 Calma 5 Sudeste 0 964.9 -0.8 89
2018-08-27 04:00:00 11.9 2 Sudeste 4 Este 0 965.2 -0.6 91
2018-08-27 03:00:00 13.2 2 Sur 3 Sur 0 965.2 -0.6 87
2018-08-27 02:00:00 13.8 0 Calma 3 Sur 0 965.7 0 86
2018-08-27 01:00:00 15 0 Calma 4 Sur 0 965.8 0.6 84
2018-08-27 00:00:00 16 0 Calma 4 Sudoeste 0 965.8 0.8 81
2018-08-26 23:00:00 17.8 0 Calma 5 Norte 0 965.7 1.1 77
2018-08-26 22:00:00 19.5 2 Nordeste 11 Nordeste 0 965.2 1.1 72
2018-08-26 21:00:00 21.3 4 Nordeste 18 Nordeste 0 965 0.8 69
2018-08-26 20:00:00 23.5 8 Nordeste 20 Este 0 964.6 0.1 59
2018-08-26 19:00:00 27.2 7 Nordeste 18 Este 0 964.1 -0.7 48
2018-08-26 18:00:00 28 5 Norte 15 Nordeste 0 964.2 -1 39
2018-08-26 17:00:00 28.2 5 Noroeste 15 Noroeste 0 964.5 -0.9 37
2018-08-26 16:00:00 27.2 5 Norte 13 Noroeste 0 964.8 -0.9 37
2018-08-26 15:00:00 26.1 6 Este 12 Nordeste 0 965.2 -1 42
2018-08-26 14:00:00 24.5 5 Este 9 Nordeste 0 965.4 -0.9 48
2018-08-26 13:00:00 22 4 Noroeste 9 Noroeste 0 965.7 -0.6 59
2018-08-26 12:00:00 18.8 4 Oeste 10 Noroeste 0 966.2 0.1 69
2018-08-26 11:00:00 16 3 Noroeste 7 Oeste 0 966.3 0.4 80
2018-08-26 10:00:00 12.6 2 Noroeste 5 Este 0 966.3 0.8 90
2018-08-26 09:00:00 9.3 2 Este 4 Sudeste 0 966.1 0.4 96
2018-08-26 08:00:00 8.6 0 Calma 4 Sur 0 965.9 0 92
2018-08-26 07:00:00 9.1 2 Sur 4 Sudeste 0 965.5 -0.8 92
2018-08-26 06:00:00 9.5 2 Sur 4 Sur 0 965.7 -1.1 92
2018-08-26 05:00:00 9.7 0 Calma 5 Sur 0 965.9 -1.5 92
2018-08-26 04:00:00 10.2 2 Sudeste 4 Sur 0 966.3 -1.3 91
2018-08-26 03:00:00 11.1 0 Calma 4 Sur 0 966.8 -1.1 88
2018-08-26 02:00:00 11.9 0 Calma 3 Sudeste 0 967.4 -0.6 90
2018-08-26 01:00:00 12.5 0 Calma 5 Nordeste 0 967.6 -0.3 90
2018-08-26 00:00:00 13.1 2 Norte 8 Este 0 967.9 0.3 89
2018-08-25 23:00:00 13.7 3 Nordeste 15 Nordeste 0 968 0.7 87
2018-08-25 22:00:00 14.6 7 Nordeste 17 Este 0 967.9 0.8 84
2018-08-25 21:00:00 16.3 8 Nordeste 23 Este 0 967.6 0.2 73
2018-08-25 20:00:00 18.4 7 Nordeste 23 Nordeste 0 967.3 -0.6 62
2018-08-25 19:00:00 20.3 8 Nordeste 28 Nordeste 0 967.1 -1.2 58
2018-08-25 18:00:00 21.2 8 Nordeste 21 Este 0 967.4 -1.4 54
2018-08-25 17:00:00 21.4 15 Nordeste 27 Nordeste 0 967.9 -1.3 50
2018-08-25 16:00:00 21.4 10 Nordeste 28 Nordeste 0 968.3 -1.1 51
2018-08-25 15:00:00 21.2 10 Nordeste 23 Norte 0 968.8 -1.1 54
2018-08-25 14:00:00 20.6 9 Nordeste 24 Nordeste 0 969.2 -0.5 53
2018-08-25 13:00:00 19.4 7 Nordeste 24 Nordeste 0 969.4 -0.2 57
2018-08-25 12:00:00 18 12 Nordeste 27 Este 0 969.9 0.5 63
2018-08-25 11:00:00 15.9 10 Nordeste 22 Nordeste 0 969.7 0.5 75
2018-08-25 10:00:00 14.5 7 Nordeste 16 Nordeste 0 969.6 0.5 88
2018-08-25 09:00:00 10.3 3 Oeste 5 Oeste 0 969.4 0.3 99
2018-08-25 08:00:00 8.9 3 Oeste 5 Noroeste 0 969.2 0 93
2018-08-25 07:00:00 9.3 0 Calma 4 Sur 0 969.1 -0.4 92
2018-08-25 06:00:00 9.7 3 Sur 5 Sur 0 969.1 -0.8 92
2018-08-25 05:00:00 10.5 0 Calma 4 Sur 0 969.2 -1.1 91
2018-08-25 04:00:00 11.3 2 Oeste 4 Oeste 0 969.5 -0.8 91
2018-08-25 03:00:00 12.6 0 Calma 12 Este 0 969.9 -0.6 92
2018-08-25 02:00:00 13 2 Norte 8 Nordeste 0 970.3 -0.1 95
2018-08-25 01:00:00 12.9 3 Nordeste 10 Este 0 970.3 0 93
2018-08-25 00:00:00 13.6 3 Nordeste 18 Este 0 970.5 0.6 90
2018-08-24 23:00:00 14.5 7 Nordeste 23 Nordeste 0 970.4 0.7 88
2018-08-24 22:00:00 15.3 9 Nordeste 20 Nordeste 0 970.3 0.5 85
2018-08-24 21:00:00 16.2 8 Nordeste 24 Este 0 969.9 -0.1 80
2018-08-24 20:00:00 17.4 9 Nordeste 26 Nordeste 0 969.7 -0.7 75
2018-08-24 19:00:00 18.5 9 Nordeste 27 Nordeste 0 969.8 -1.3 70
2018-08-24 18:00:00 19.9 9 Nordeste 25 Nordeste 0 970 -1.3 67
2018-08-24 17:00:00 20 15 Nordeste 28 Nordeste 0 970.4 -1.1 68
2018-08-24 16:00:00 19.2 14 Nordeste 29 Nordeste 0 971.1 -0.5 72
2018-08-24 15:00:00 18.4 10 Nordeste 24 Nordeste 0 971.3 -0.3 77
2018-08-24 14:00:00 19 8 Nordeste 24 Nordeste 0 971.5 0 77
2018-08-24 13:00:00 17.4 11 Nordeste 23 Nordeste 0 971.6 0.4 82
2018-08-24 12:00:00 16.5 8 Nordeste 21 Este 0 971.6 0.6 87
2018-08-24 11:00:00 16.3 7 Nordeste 21 Nordeste 0 971.5 0.8 90
2018-08-24 10:00:00 15.5 8 Nordeste 21 Nordeste 0 971.2 0.8 96
2018-08-24 09:00:00 14.6 3 Nordeste 9 Norte 0 971 0.6 99
2018-08-24 08:00:00 12 0 Calma 5 Sudeste 0 970.7 0.3 94
2018-08-24 07:00:00 11.9 2 Sudeste 7 Sudeste 0 970.4 0 95
2018-08-24 06:00:00 12 0 Calma 4 Sudeste 0 970.4 -0.3 91
2018-08-24 05:00:00 13.1 2 Sur 6 Sudeste 0 970.4 -0.7 89
2018-08-24 04:00:00 13.9 2 Sur 5 Sur 0 970.4 -0.8 90
2018-08-24 03:00:00 15.4 3 Sudeste 4 Sudeste 0 970.7 -0.5 90
2018-08-24 02:00:00 15.2 3 Nordeste 6 Este 0 971.1 -0.1 92
2018-08-24 01:00:00 15.6 3 Este 14 Este 0 971.2 0.8 90
2018-08-24 00:00:00 16.5 8 Nordeste 27 Este 0 971.2 1.5 86
2018-08-23 23:00:00 16.4 10 Nordeste 23 Nordeste 0 971.2 1.9 88
2018-08-23 22:00:00 16.6 9 Nordeste 20 Este 0 970.4 1.2 88
2018-08-23 21:00:00 18 6 Nordeste 19 Nordeste 0 969.7 0.8 85
2018-08-23 20:00:00 19.6 10 Nordeste 27 Nordeste 0 969.3 0.5 79
2018-08-23 19:00:00 21.3 15 Nordeste 31 Este 0 969.2 0.4 74
2018-08-23 18:00:00 23.4 11 Nordeste 26 Este 0 968.9 -0.1 70
2018-08-23 17:00:00 25.4 8 Nordeste 23 Nordeste 0 968.8 -0.4 63
2018-08-23 16:00:00 25.7 12 Nordeste 22 Este 0 968.8 -0.5 61
2018-08-23 15:00:00 25.7 7 Nordeste 20 Nordeste 0 969 -0.3 64
2018-08-23 14:00:00 24.3 10 Nordeste 23 Nordeste 0 969.2 0.4 66
2018-08-23 13:00:00 23.3 8 Nordeste 23 Este 0 969.3 0.9 69
2018-08-23 12:00:00 21.9 10 Nordeste 23 Nordeste 0 969.3 1.1 70
2018-08-23 11:00:00 21 10 Nordeste 19 Este 0 968.8 1 74
2018-08-23 10:00:00 19.3 8 Este 17 Nordeste 0 968.4 0.9 80
2018-08-23 09:00:00 18.3 8 Este 18 Nordeste 0 968.2 0.9 86
2018-08-23 08:00:00 18 5 Nordeste 14 Nordeste 0 967.8 0.5 89
2018-08-23 07:00:00 18 5 Nordeste 14 Nordeste 0 967.5 0 90
2018-08-23 06:00:00 18.1 6 Nordeste 12 Nordeste 0 967.3 -0.5 89
2018-08-23 05:00:00 18.3 2 Nordeste 10 Nordeste 0 967.3 -0.7 91
2018-08-23 04:00:00 18.3 5 Nordeste 13 Nordeste 0 967.5 -0.4 92
2018-08-23 03:00:00 18.5 7 Nordeste 18 Nordeste 0 967.8 0 91
2018-08-23 02:00:00 18.7 5 Nordeste 15 Este 0 968 0.3 92
2018-08-23 01:00:00 18.9 5 Nordeste 12 Nordeste 0 967.9 0.5 92
2018-08-23 00:00:00 19.3 6 Nordeste 16 Nordeste 0 967.8 0.9 90